カンクン の空港の天気 - METARとTAF

カンクン国際空港 ( MMUN / CUN ) - メキシコ キンタナ・ロー州カンクン
飛行場実況気象(Metar)
観測時間02/17 16:47 CST (02/17 22:47 UTC)
風向・風速南東 9m/s
視程10km以上
天気現象
全天の4割程度の雲 雲底高度 550m
気温27℃
湿度79%
気圧1011hPa
METARMMUN 172247Z 14018KT 7SM SCT018TCU 27/23 A2985 RMK 8/200
過去の天気等 Google飛行場航空写真 Wunderground天気予報

過去48時間のMETAR

飛行場予報(TAF)
発表時間: 2/17 11:06 CST (2/17 17:06 UTC)
予報対象時間: 17日12時 CST ~ 18日18時 CST
風向・風速南東 10m/s
視程10km以上
全天の4割程度の雲 雲底高度 610m
18日0時 CST から
風向・風速南東 9m/s
視程10km以上
なし
18日6時 CST から
風向・風速南東 6m/s
視程10km以上
全天の4割程度の雲 雲底高度 460m
18日12時 CST から
風向・風速南東 10m/s
視程10km以上
なし
TAF MMUN 171706Z 1718/1824 14020KT P6SM SCT020 TX27/1720Z TN24/1812Z
FM180600 14018KT P6SM SKC
FM181200 14012KT P6SM SCT015
FM181800 14020KT P6SM SKC